Rode Zora V. Amsterd — DIPU2 — position and weather

sailwx.info

Track history (hours):
 
Tides and Currents Weather Stations Pressure Air Temp Water Temp Dewpoint Dewpoint Depression Visibility Wind Speed Wind Dir Waves Ship Positions

Rode Zora V. Amsterd

Last reported at 2017-Dec-22 12:10 UTC. Time now 2018-Jan-18 10:11 UTC.
Position N 14°36' W 061°04'.
Warning: this ship's position is 26 days out of date.

Length 12 m.

Type: Sailing vessel. MMSI: 211658760.

Date/timePositionNaut miles runAvg speedWind from/ knotsBaromVisibWave heightAir tempDewpointWater temp
2017-Dec-22 12:10N 14°36' W 061°04'6 0.2
2017-Dec-20 20:07N 14°29' W 061°06'3 3.0
2017-Dec-20 19:07N 14°27' W 061°04'1 5.7
2017-Dec-20 18:56N 14°27' W 061°03'2 5.0
2017-Dec-20 18:30N 14°26' W 061°01'3 5.4
2017-Dec-20 17:59N 14°25' W 060°58'3 5.7
2017-Dec-20 17:30N 14°24' W 060°56'3 6.0
2017-Dec-20 17:00N 14°23' W 060°53'2 4.4
2017-Dec-20 16:30N 14°23' W 060°51'3 6.0
2017-Dec-20 16:00N 14°25' W 060°49'3 6.3
2017-Dec-20 15:30N 14°28' W 060°48'3 6.5
2017-Dec-20 15:00N 14°32' W 060°48'4 6.1
2017-Dec-20 14:22N 14°35' W 060°50'  
2017-Dec-17 15:13N 14°34' W 060°47'2 6.4
2017-Dec-17 14:56N 14°32' W 060°47'3 6.4
2017-Dec-17 14:29N 14°29' W 060°47'3 6.1
2017-Dec-17 13:55N 14°26' W 060°47'3 6.3
2017-Dec-17 13:23N 14°23' W 060°49'3 5.8
2017-Dec-17 12:49N 14°20' W 060°50'2 5.0
2017-Dec-17 12:28N 14°21' W 060°51'3 6.4
2017-Dec-17 12:00N 14°23' W 060°53'2 4.7
2017-Dec-17 11:30N 14°25' W 060°54'1 2.8
2017-Dec-17 11:00N 14°26' W 060°53'0 0.9
2017-Dec-17 10:29N 14°26' W 060°53'0 0.0
2017-Dec-17 10:00N 14°26' W 060°53'0 0.0
2017-Dec-17 09:30N 14°26' W 060°53'0 0.0
2017-Dec-17 09:00N 14°26' W 060°53'0 0.0
2017-Dec-17 08:30N 14°26' W 060°53'0 0.0
2017-Dec-17 08:00N 14°26' W 060°53'0 0.0
2017-Dec-17 07:30N 14°26' W 060°53'0 0.0
2017-Dec-17 06:59N 14°26' W 060°53'0 0.0
2017-Dec-17 06:30N 14°26' W 060°53'0 0.0
2017-Dec-17 06:00N 14°26' W 060°53'0 0.0
2017-Dec-17 05:26N 14°26' W 060°53'0 0.0
2017-Dec-17 05:00N 14°26' W 060°53'0 0.0
2017-Dec-17 04:30N 14°26' W 060°53'0 0.0
2017-Dec-17 04:00N 14°26' W 060°53'0 0.0
2017-Dec-17 03:30N 14°26' W 060°53'0 0.0
2017-Dec-17 03:00N 14°26' W 060°53'0 0.0
2017-Dec-17 02:30N 14°26' W 060°53'0 0.0
2017-Dec-17 02:00N 14°26' W 060°53'0 0.0
2017-Dec-17 01:30N 14°26' W 060°53'0 0.0
2017-Dec-17 01:00N 14°26' W 060°53'0 0.0
2017-Dec-17 00:29N 14°26' W 060°53'0 0.0
2017-Dec-16 23:53N 14°26' W 060°53'0 0.0
2017-Dec-16 23:30N 14°26' W 060°53'0 0.0
2017-Dec-16 22:55N 14°26' W 060°53'0 0.0
2017-Dec-16 22:30N 14°26' W 060°53'0 0.0
2017-Dec-16 21:58N 14°26' W 060°53'0 0.0
2017-Dec-16 21:27N 14°26' W 060°53'0 0.0
2017-Dec-16 21:00N 14°26' W 060°53'0 0.0
2017-Dec-16 20:30N 14°26' W 060°53'0 0.0
2017-Dec-16 19:58N 14°26' W 060°53'0 0.0
2017-Dec-16 19:30N 14°26' W 060°53'0 0.0
2017-Dec-16 19:00N 14°26' W 060°53'0 0.0
2017-Dec-16 18:30N 14°26' W 060°53'0 0.0
2017-Dec-16 17:58N 14°26' W 060°53'0 0.0
2017-Dec-16 17:29N 14°26' W 060°53'0 0.1
2017-Dec-16 17:00N 14°26' W 060°53'2 3.9
2017-Dec-16 16:30N 14°28' W 060°53'1 1.1
2017-Dec-16 16:00N 14°28' W 060°52'0 0.0
2017-Dec-16 15:30N 14°28' W 060°52'0 0.0
2017-Dec-16 15:00N 14°28' W 060°52'0 0.0
2017-Dec-16 14:28N 14°28' W 060°52'0 0.0
2017-Dec-16 14:00N 14°28' W 060°52'0 0.0
2017-Dec-16 13:30N 14°28' W 060°52'0 0.0
2017-Dec-16 13:00N 14°28' W 060°52'0 0.0
2017-Dec-16 12:30N 14°28' W 060°52'0 0.0
2017-Dec-16 11:57N 14°28' W 060°52'0 0.0
2017-Dec-16 11:30N 14°28' W 060°52'0 0.0
2017-Dec-16 11:00N 14°28' W 060°52'0 0.0
2017-Dec-16 10:30N 14°28' W 060°52'0 0.0
2017-Dec-16 10:00N 14°28' W 060°52'0 0.0
2017-Dec-16 09:29N 14°28' W 060°52'0 0.0
2017-Dec-16 09:00N 14°28' W 060°52'0 0.0
2017-Dec-16 08:30N 14°28' W 060°52'0 0.0
2017-Dec-16 08:00N 14°28' W 060°52'0 0.0
2017-Dec-16 07:29N 14°28' W 060°52'0 0.0
2017-Dec-16 06:21N 14°28' W 060°52'0 0.0
2017-Dec-16 05:59N 14°28' W 060°52'0 0.0
2017-Dec-16 05:29N 14°28' W 060°52'0 0.0
2017-Dec-16 04:58N 14°28' W 060°52'0 0.0
2017-Dec-16 04:30N 14°28' W 060°52'0 0.0
2017-Dec-16 03:59N 14°28' W 060°52'0 0.0
2017-Dec-16 03:29N 14°28' W 060°52'0 0.0
2017-Dec-16 02:58N 14°28' W 060°52'0 0.0
2017-Dec-16 02:29N 14°28' W 060°52'0 0.0
2017-Dec-16 02:00N 14°28' W 060°52'0 0.0
2017-Dec-16 01:30N 14°28' W 060°52'0 0.0
2017-Dec-16 01:00N 14°28' W 060°52'0 0.0
2017-Dec-16 00:30N 14°28' W 060°52'0 0.0
2017-Dec-16 00:00N 14°28' W 060°52'0 0.0
2017-Dec-15 23:29N 14°28' W 060°52'0 0.0
2017-Dec-15 22:59N 14°28' W 060°52'0 0.0
2017-Dec-15 22:30N 14°28' W 060°52'0 0.0
2017-Dec-15 21:59N 14°28' W 060°52'0 0.0
2017-Dec-15 21:28N 14°28' W 060°52'0 0.0
2017-Dec-15 20:52N 14°28' W 060°52'0 0.0
2017-Dec-15 20:29N 14°28' W 060°52'0 0.0
2017-Dec-15 19:56N 14°28' W 060°52'0 0.0
2017-Dec-15 19:29N 14°28' W 060°52'0 0.0
2017-Dec-15 18:59N 14°28' W 060°52'0 0.0
2017-Dec-15 18:22N 14°28' W 060°52'0 0.0
2017-Dec-15 18:00N 14°28' W 060°52'0 0.0
2017-Dec-15 17:29N 14°28' W 060°52'0 0.0
2017-Dec-15 16:59N 14°28' W 060°52'0 0.0
2017-Dec-15 16:30N 14°28' W 060°52'0 0.0
2017-Dec-15 16:00N 14°28' W 060°52'0 0.0
2017-Dec-15 15:28N 14°28' W 060°52'0 0.0
2017-Dec-15 14:56N 14°28' W 060°52'0 0.0
2017-Dec-15 14:28N 14°28' W 060°52'0 0.0
2017-Dec-15 13:59N 14°28' W 060°52'0 0.0
2017-Dec-15 13:30N 14°28' W 060°52'0 0.0
2017-Dec-15 12:58N 14°28' W 060°52'0 0.0
2017-Dec-15 12:28N 14°28' W 060°52'0 0.0
2017-Dec-15 11:59N 14°28' W 060°52'0 0.0
2017-Dec-15 11:29N 14°28' W 060°52'0 0.0
2017-Dec-15 10:58N 14°28' W 060°52'0 0.0
2017-Dec-15 10:30N 14°28' W 060°52'0 0.0
2017-Dec-15 10:00N 14°28' W 060°52'0 0.0
2017-Dec-15 09:29N 14°28' W 060°52'0 0.0
2017-Dec-15 09:00N 14°28' W 060°52'0 0.0
2017-Dec-15 08:28N 14°28' W 060°52'0 0.0
2017-Dec-15 07:58N 14°28' W 060°52'0 0.0
2017-Dec-15 07:30N 14°28' W 060°52'0 0.0
2017-Dec-15 06:58N 14°28' W 060°52'0 0.0
2017-Dec-15 06:28N 14°28' W 060°52'0 0.0
2017-Dec-15 05:58N 14°28' W 060°52'0 0.0
2017-Dec-15 05:31N 14°28' W 060°52'0 0.0
2017-Dec-15 04:58N 14°28' W 060°52'0 0.0
2017-Dec-15 04:29N 14°28' W 060°52'0 0.0
2017-Dec-15 03:59N 14°28' W 060°52'0 0.0
2017-Dec-15 02:31N 14°28' W 060°52'0 0.0
2017-Dec-15 00:59N 14°28' W 060°52'0 0.0
2017-Dec-15 00:30N 14°28' W 060°52'2 0.4
2017-Dec-14 18:30N 14°26' W 060°53'0 0.0
2017-Dec-14 17:55N 14°26' W 060°53'0 0.0
2017-Dec-14 17:30N 14°26' W 060°53'0 0.0
2017-Dec-14 16:45N 14°26' W 060°53'0 0.0
2017-Dec-14 16:26N 14°26' W 060°53'0 0.0
2017-Dec-14 15:53N 14°26' W 060°53'0 0.0
2017-Dec-14 14:52N 14°26' W 060°53'0 0.0
2017-Dec-14 14:28N 14°26' W 060°53'0 0.0
2017-Dec-14 14:00N 14°26' W 060°53'0 0.0
2017-Dec-14 13:28N 14°26' W 060°53'0 0.0
2017-Dec-14 13:00N 14°26' W 060°53'0 0.0
2017-Dec-14 12:30N 14°26' W 060°53'0 0.0
2017-Dec-14 11:59N 14°26' W 060°53'0 0.0
2017-Dec-14 11:29N 14°26' W 060°53'0 0.0
2017-Dec-14 11:00N 14°26' W 060°53'0 0.0
2017-Dec-14 10:25N 14°26' W 060°53'0 0.0
2017-Dec-14 09:58N 14°26' W 060°53'0 0.0
2017-Dec-14 09:29N 14°26' W 060°53'0 0.0
2017-Dec-14 08:58N 14°26' W 060°53'0 0.0
2017-Dec-14 08:30N 14°26' W 060°53'0 0.0
2017-Dec-14 08:00N 14°26' W 060°53'0 0.0
2017-Dec-14 07:29N 14°26' W 060°53'0 0.0
2017-Dec-14 06:20N 14°26' W 060°53'0 0.0
2017-Dec-14 06:00N 14°26' W 060°53'0 0.0
2017-Dec-14 05:30N 14°26' W 060°53'0 0.0
2017-Dec-14 05:00N 14°26' W 060°53'0 0.0
2017-Dec-14 04:29N 14°26' W 060°53'0 0.0
2017-Dec-14 04:00N 14°26' W 060°53'0 0.0
2017-Dec-14 03:30N 14°26' W 060°53'0 0.0
2017-Dec-14 03:00N 14°26' W 060°53'0 0.0
2017-Dec-14 02:28N 14°26' W 060°53'0 0.0
2017-Dec-14 01:59N 14°26' W 060°53'0 0.0
2017-Dec-14 01:30N 14°26' W 060°53'0 0.0
2017-Dec-14 01:00N 14°26' W 060°53'0 0.0
2017-Dec-14 00:28N 14°26' W 060°53'0 0.0
2017-Dec-14 00:00N 14°26' W 060°53'0 0.0
2017-Dec-13 23:29N 14°26' W 060°53'0 0.0
2017-Dec-13 22:53N 14°26' W 060°53'0 0.0
2017-Dec-13 22:24N 14°26' W 060°53'0 0.0
2017-Dec-13 21:43N 14°26' W 060°53'0 0.0
2017-Dec-13 21:18N 14°26' W 060°53'0 0.0
2017-Dec-13 21:00N 14°26' W 060°53'0 0.0
2017-Dec-13 20:28N 14°26' W 060°53'0 0.0
2017-Dec-13 20:00N 14°26' W 060°53'0 0.0
2017-Dec-13 19:27N 14°26' W 060°53'0 0.0
2017-Dec-13 19:00N 14°26' W 060°53'0 0.0
2017-Dec-13 18:28N 14°26' W 060°53'0 0.0
2017-Dec-13 17:50N 14°26' W 060°53'0 0.0
2017-Dec-13 17:29N 14°26' W 060°53'0 0.0
2017-Dec-13 16:51N 14°26' W 060°53'0 0.0
2017-Dec-13 16:28N 14°26' W 060°53'0 0.0
2017-Dec-13 16:00N 14°26' W 060°53'0 0.0
2017-Dec-13 15:28N 14°26' W 060°53'0 0.0
2017-Dec-13 14:56N 14°26' W 060°53'2 3.0
2017-Dec-13 14:24N 14°25' W 060°54'3 5.5
2017-Dec-13 13:57N 14°23' W 060°52'3 5.6
2017-Dec-13 13:25N 14°21' W 060°50'  
Track history (hours):
 
Tides and Currents Weather Stations Pressure Air Temp Water Temp Dewpoint Dewpoint Depression Visibility Wind Speed Wind Dir Waves Ship Positions

Rode Zora V. Amsterd

Last reported at 2017-Dec-22 12:10 UTC. Time now 2018-Jan-18 10:11 UTC.
Position N 14°36' W 061°04'.
Warning: this ship's position is 26 days out of date.

Length 12 m.

Type: Sailing vessel. MMSI: 211658760.

Date/timePositionNaut miles runAvg speedWind from/ knotsBaromVisibWave heightAir tempDewpointWater temp
2017-Dec-22 12:10N 14°36' W 061°04'6 0.2
2017-Dec-20 20:07N 14°29' W 061°06'3 3.0
2017-Dec-20 19:07N 14°27' W 061°04'1 5.7
2017-Dec-20 18:56N 14°27' W 061°03'2 5.0
2017-Dec-20 18:30N 14°26' W 061°01'3 5.4
2017-Dec-20 17:59N 14°25' W 060°58'3 5.7
2017-Dec-20 17:30N 14°24' W 060°56'3 6.0
2017-Dec-20 17:00N 14°23' W 060°53'2 4.4
2017-Dec-20 16:30N 14°23' W 060°51'3 6.0
2017-Dec-20 16:00N 14°25' W 060°49'3 6.3
2017-Dec-20 15:30N 14°28' W 060°48'3 6.5
2017-Dec-20 15:00N 14°32' W 060°48'4 6.1
2017-Dec-20 14:22N 14°35' W 060°50'  
2017-Dec-17 15:13N 14°34' W 060°47'2 6.4
2017-Dec-17 14:56N 14°32' W 060°47'3 6.4
2017-Dec-17 14:29N 14°29' W 060°47'3 6.1
2017-Dec-17 13:55N 14°26' W 060°47'3 6.3
2017-Dec-17 13:23N 14°23' W 060°49'3 5.8
2017-Dec-17 12:49N 14°20' W 060°50'2 5.0
2017-Dec-17 12:28N 14°21' W 060°51'3 6.4
2017-Dec-17 12:00N 14°23' W 060°53'2 4.7
2017-Dec-17 11:30N 14°25' W 060°54'1 2.8
2017-Dec-17 11:00N 14°26' W 060°53'0 0.9
2017-Dec-17 10:29N 14°26' W 060°53'0 0.0
2017-Dec-17 10:00N 14°26' W 060°53'0 0.0
2017-Dec-17 09:30N 14°26' W 060°53'0 0.0
2017-Dec-17 09:00N 14°26' W 060°53'0 0.0
2017-Dec-17 08:30N 14°26' W 060°53'0 0.0
2017-Dec-17 08:00N 14°26' W 060°53'0 0.0
2017-Dec-17 07:30N 14°26' W 060°53'0 0.0
2017-Dec-17 06:59N 14°26' W 060°53'0 0.0
2017-Dec-17 06:30N 14°26' W 060°53'0 0.0
2017-Dec-17 06:00N 14°26' W 060°53'0 0.0
2017-Dec-17 05:26N 14°26' W 060°53'0 0.0
2017-Dec-17 05:00N 14°26' W 060°53'0 0.0
2017-Dec-17 04:30N 14°26' W 060°53'0 0.0
2017-Dec-17 04:00N 14°26' W 060°53'0 0.0
2017-Dec-17 03:30N 14°26' W 060°53'0 0.0
2017-Dec-17 03:00N 14°26' W 060°53'0 0.0
2017-Dec-17 02:30N 14°26' W 060°53'0 0.0
2017-Dec-17 02:00N 14°26' W 060°53'0 0.0
2017-Dec-17 01:30N 14°26' W 060°53'0 0.0
2017-Dec-17 01:00N 14°26' W 060°53'0 0.0
2017-Dec-17 00:29N 14°26' W 060°53'0 0.0
2017-Dec-16 23:53N 14°26' W 060°53'0 0.0
2017-Dec-16 23:30N 14°26' W 060°53'0 0.0
2017-Dec-16 22:55N 14°26' W 060°53'0 0.0
2017-Dec-16 22:30N 14°26' W 060°53'0 0.0
2017-Dec-16 21:58N 14°26' W 060°53'0 0.0
2017-Dec-16 21:27N 14°26' W 060°53'0 0.0
2017-Dec-16 21:00N 14°26' W 060°53'0 0.0
2017-Dec-16 20:30N 14°26' W 060°53'0 0.0
2017-Dec-16 19:58N 14°26' W 060°53'0 0.0
2017-Dec-16 19:30N 14°26' W 060°53'0 0.0
2017-Dec-16 19:00N 14°26' W 060°53'0 0.0
2017-Dec-16 18:30N 14°26' W 060°53'0 0.0
2017-Dec-16 17:58N 14°26' W 060°53'0 0.0
2017-Dec-16 17:29N 14°26' W 060°53'0 0.1
2017-Dec-16 17:00N 14°26' W 060°53'2 3.9
2017-Dec-16 16:30N 14°28' W 060°53'1 1.1
2017-Dec-16 16:00N 14°28' W 060°52'0 0.0
2017-Dec-16 15:30N 14°28' W 060°52'0 0.0
2017-Dec-16 15:00N 14°28' W 060°52'0 0.0
2017-Dec-16 14:28N 14°28' W 060°52'0 0.0
2017-Dec-16 14:00N 14°28' W 060°52'0 0.0
2017-Dec-16 13:30N 14°28' W 060°52'0 0.0
2017-Dec-16 13:00N 14°28' W 060°52'0 0.0
2017-Dec-16 12:30N 14°28' W 060°52'0 0.0
2017-Dec-16 11:57N 14°28' W 060°52'0 0.0
2017-Dec-16 11:30N 14°28' W 060°52'0 0.0
2017-Dec-16 11:00N 14°28' W 060°52'0 0.0
2017-Dec-16 10:30N 14°28' W 060°52'0 0.0
2017-Dec-16 10:00N 14°28' W 060°52'0 0.0
2017-Dec-16 09:29N 14°28' W 060°52'0 0.0
2017-Dec-16 09:00N 14°28' W 060°52'0 0.0
2017-Dec-16 08:30N 14°28' W 060°52'0 0.0
2017-Dec-16 08:00N 14°28' W 060°52'0 0.0
2017-Dec-16 07:29N 14°28' W 060°52'0 0.0
2017-Dec-16 06:21N 14°28' W 060°52'0 0.0
2017-Dec-16 05:59N 14°28' W 060°52'0 0.0
2017-Dec-16 05:29N 14°28' W 060°52'0 0.0
2017-Dec-16 04:58N 14°28' W 060°52'0 0.0
2017-Dec-16 04:30N 14°28' W 060°52'0 0.0
2017-Dec-16 03:59N 14°28' W 060°52'0 0.0
2017-Dec-16 03:29N 14°28' W 060°52'0 0.0
2017-Dec-16 02:58N 14°28' W 060°52'0 0.0
2017-Dec-16 02:29N 14°28' W 060°52'0 0.0
2017-Dec-16 02:00N 14°28' W 060°52'0 0.0
2017-Dec-16 01:30N 14°28' W 060°52'0 0.0
2017-Dec-16 01:00N 14°28' W 060°52'0 0.0
2017-Dec-16 00:30N 14°28' W 060°52'0 0.0
2017-Dec-16 00:00N 14°28' W 060°52'0 0.0
2017-Dec-15 23:29N 14°28' W 060°52'0 0.0
2017-Dec-15 22:59N 14°28' W 060°52'0 0.0
2017-Dec-15 22:30N 14°28' W 060°52'0 0.0
2017-Dec-15 21:59N 14°28' W 060°52'0 0.0
2017-Dec-15 21:28N 14°28' W 060°52'0 0.0
2017-Dec-15 20:52N 14°28' W 060°52'0 0.0
2017-Dec-15 20:29N 14°28' W 060°52'0 0.0
2017-Dec-15 19:56N 14°28' W 060°52'0 0.0
2017-Dec-15 19:29N 14°28' W 060°52'0 0.0
2017-Dec-15 18:59N 14°28' W 060°52'0 0.0
2017-Dec-15 18:22N 14°28' W 060°52'0 0.0
2017-Dec-15 18:00N 14°28' W 060°52'0 0.0
2017-Dec-15 17:29N 14°28' W 060°52'0 0.0
2017-Dec-15 16:59N 14°28' W 060°52'0 0.0
2017-Dec-15 16:30N 14°28' W 060°52'0 0.0
2017-Dec-15 16:00N 14°28' W 060°52'0 0.0
2017-Dec-15 15:28N 14°28' W 060°52'0 0.0
2017-Dec-15 14:56N 14°28' W 060°52'0 0.0
2017-Dec-15 14:28N 14°28' W 060°52'0 0.0
2017-Dec-15 13:59N 14°28' W 060°52'0 0.0
2017-Dec-15 13:30N 14°28' W 060°52'0 0.0
2017-Dec-15 12:58N 14°28' W 060°52'0 0.0
2017-Dec-15 12:28N 14°28' W 060°52'0 0.0
2017-Dec-15 11:59N 14°28' W 060°52'0 0.0
2017-Dec-15 11:29N 14°28' W 060°52'0 0.0
2017-Dec-15 10:58N 14°28' W 060°52'0 0.0
2017-Dec-15 10:30N 14°28' W 060°52'0 0.0
2017-Dec-15 10:00N 14°28' W 060°52'0 0.0
2017-Dec-15 09:29N 14°28' W 060°52'0 0.0
2017-Dec-15 09:00N 14°28' W 060°52'0 0.0
2017-Dec-15 08:28N 14°28' W 060°52'0 0.0
2017-Dec-15 07:58N 14°28' W 060°52'0 0.0
2017-Dec-15 07:30N 14°28' W 060°52'0 0.0
2017-Dec-15 06:58N 14°28' W 060°52'0 0.0
2017-Dec-15 06:28N 14°28' W 060°52'0 0.0
2017-Dec-15 05:58N 14°28' W 060°52'0 0.0
2017-Dec-15 05:31N 14°28' W 060°52'0 0.0
2017-Dec-15 04:58N 14°28' W 060°52'0 0.0
2017-Dec-15 04:29N 14°28' W 060°52'0 0.0
2017-Dec-15 03:59N 14°28' W 060°52'0 0.0
2017-Dec-15 02:31N 14°28' W 060°52'0 0.0
2017-Dec-15 00:59N 14°28' W 060°52'0 0.0
2017-Dec-15 00:30N 14°28' W 060°52'2 0.4
2017-Dec-14 18:30N 14°26' W 060°53'0 0.0
2017-Dec-14 17:55N 14°26' W 060°53'0 0.0
2017-Dec-14 17:30N 14°26' W 060°53'0 0.0
2017-Dec-14 16:45N 14°26' W 060°53'0 0.0
2017-Dec-14 16:26N 14°26' W 060°53'0 0.0
2017-Dec-14 15:53N 14°26' W 060°53'0 0.0
2017-Dec-14 14:52N 14°26' W 060°53'0 0.0
2017-Dec-14 14:28N 14°26' W 060°53'0 0.0
2017-Dec-14 14:00N 14°26' W 060°53'0 0.0
2017-Dec-14 13:28N 14°26' W 060°53'0 0.0
2017-Dec-14 13:00N 14°26' W 060°53'0 0.0
2017-Dec-14 12:30N 14°26' W 060°53'0 0.0
2017-Dec-14 11:59N 14°26' W 060°53'0 0.0
2017-Dec-14 11:29N 14°26' W 060°53'0 0.0
2017-Dec-14 11:00N 14°26' W 060°53'0 0.0
2017-Dec-14 10:25N 14°26' W 060°53'0 0.0
2017-Dec-14 09:58N 14°26' W 060°53'0 0.0
2017-Dec-14 09:29N 14°26' W 060°53'0 0.0
2017-Dec-14 08:58N 14°26' W 060°53'0 0.0
2017-Dec-14 08:30N 14°26' W 060°53'0 0.0
2017-Dec-14 08:00N 14°26' W 060°53'0 0.0
2017-Dec-14 07:29N 14°26' W 060°53'0 0.0
2017-Dec-14 06:20N 14°26' W 060°53'0 0.0
2017-Dec-14 06:00N 14°26' W 060°53'0 0.0
2017-Dec-14 05:30N 14°26' W 060°53'0 0.0
2017-Dec-14 05:00N 14°26' W 060°53'0 0.0
2017-Dec-14 04:29N 14°26' W 060°53'0 0.0
2017-Dec-14 04:00N 14°26' W 060°53'0 0.0
2017-Dec-14 03:30N 14°26' W 060°53'0 0.0
2017-Dec-14 03:00N 14°26' W 060°53'0 0.0
2017-Dec-14 02:28N 14°26' W 060°53'0 0.0
2017-Dec-14 01:59N 14°26' W 060°53'0 0.0
2017-Dec-14 01:30N 14°26' W 060°53'0 0.0
2017-Dec-14 01:00N 14°26' W 060°53'0 0.0
2017-Dec-14 00:28N 14°26' W 060°53'0 0.0
2017-Dec-14 00:00N 14°26' W 060°53'0 0.0
2017-Dec-13 23:29N 14°26' W 060°53'0 0.0
2017-Dec-13 22:53N 14°26' W 060°53'0 0.0
2017-Dec-13 22:24N 14°26' W 060°53'0 0.0
2017-Dec-13 21:43N 14°26' W 060°53'0 0.0
2017-Dec-13 21:18N 14°26' W 060°53'0 0.0
2017-Dec-13 21:00N 14°26' W 060°53'0 0.0
2017-Dec-13 20:28N 14°26' W 060°53'0 0.0
2017-Dec-13 20:00N 14°26' W 060°53'0 0.0
2017-Dec-13 19:27N 14°26' W 060°53'0 0.0
2017-Dec-13 19:00N 14°26' W 060°53'0 0.0
2017-Dec-13 18:28N 14°26' W 060°53'0 0.0
2017-Dec-13 17:50N 14°26' W 060°53'0 0.0
2017-Dec-13 17:29N 14°26' W 060°53'0 0.0
2017-Dec-13 16:51N 14°26' W 060°53'0 0.0
2017-Dec-13 16:28N 14°26' W 060°53'0 0.0
2017-Dec-13 16:00N 14°26' W 060°53'0 0.0
2017-Dec-13 15:28N 14°26' W 060°53'0 0.0
2017-Dec-13 14:56N 14°26' W 060°53'2 3.0
2017-Dec-13 14:24N 14°25' W 060°54'3 5.5
2017-Dec-13 13:57N 14°23' W 060°52'3 5.6
2017-Dec-13 13:25N 14°21' W 060°50'  

Dump ship's entire track history